sensor_id;sensor_type;location;lat;lon;timestamp;P1;durP1;ratioP1;P2;durP2;ratioP2
79759;SDS011;70512;42.122;24.732;2024-03-02T00:00:12;59.95;;;29.57;;
79759;SDS011;70512;42.122;24.732;2024-03-02T00:02:44;64.25;;;30.85;;
79759;SDS011;70512;42.122;24.732;2024-03-02T00:05:12;68.28;;;32.10;;
79759;SDS011;70512;42.122;24.732;2024-03-02T00:07:42;76.37;;;32.10;;
79759;SDS011;70512;42.122;24.732;2024-03-02T00:10:11;62.95;;;31.60;;
79759;SDS011;70512;42.122;24.732;2024-03-02T00:12:40;70.87;;;31.02;;
79759;SDS011;70512;42.122;24.732;2024-03-02T00:18:04;67.80;;;33.67;;
79759;SDS011;70512;42.122;24.732;2024-03-02T00:20:32;73.30;;;32.98;;
79759;SDS011;70512;42.122;24.732;2024-03-02T00:23:02;75.60;;;32.90;;
79759;SDS011;70512;42.122;24.732;2024-03-02T00:28:23;66.62;;;31.00;;
79759;SDS011;70512;42.122;24.732;2024-03-02T00:31:09;76.80;;;32.23;;
79759;SDS011;70512;42.122;24.732;2024-03-02T00:36:09;74.10;;;33.00;;
79759;SDS011;70512;42.122;24.732;2024-03-02T00:38:46;71.02;;;34.00;;
79759;SDS011;70512;42.122;24.732;2024-03-02T00:41:27;70.72;;;34.67;;
79759;SDS011;70512;42.122;24.732;2024-03-02T00:44:01;67.50;;;31.10;;
79759;SDS011;70512;42.122;24.732;2024-03-02T00:46:39;81.37;;;33.33;;
79759;SDS011;70512;42.122;24.732;2024-03-02T00:49:05;71.40;;;34.00;;
79759;SDS011;70512;42.122;24.732;2024-03-02T00:51:34;69.03;;;32.98;;
79759;SDS011;70512;42.122;24.732;2024-03-02T00:54:03;66.00;;;32.20;;
79759;SDS011;70512;42.122;24.732;2024-03-02T00:56:32;75.40;;;35.80;;
79759;SDS011;70512;42.122;24.732;2024-03-02T00:59:03;75.95;;;34.45;;
79759;SDS011;70512;42.122;24.732;2024-03-02T01:01:31;75.35;;;36.88;;
79759;SDS011;70512;42.122;24.732;2024-03-02T01:03:59;69.17;;;33.95;;
79759;SDS011;70512;42.122;24.732;2024-03-02T01:06:26;80.28;;;36.63;;
79759;SDS011;70512;42.122;24.732;2024-03-02T01:08:54;83.30;;;34.95;;
79759;SDS011;70512;42.122;24.732;2024-03-02T01:11:22;86.37;;;38.25;;
79759;SDS011;70512;42.122;24.732;2024-03-02T01:13:50;97.70;;;39.63;;
79759;SDS011;70512;42.122;24.732;2024-03-02T01:16:18;91.25;;;39.80;;
79759;SDS011;70512;42.122;24.732;2024-03-02T01:18:45;91.30;;;39.50;;
79759;SDS011;70512;42.122;24.732;2024-03-02T01:21:13;95.67;;;39.33;;
79759;SDS011;70512;42.122;24.732;2024-03-02T01:23:41;87.85;;;38.95;;
79759;SDS011;70512;42.122;24.732;2024-03-02T01:26:09;89.60;;;39.53;;
79759;SDS011;70512;42.122;24.732;2024-03-02T01:28:37;100.10;;;40.67;;
79759;SDS011;70512;42.122;24.732;2024-03-02T01:31:04;106.70;;;42.83;;
79759;SDS011;70512;42.122;24.732;2024-03-02T01:33:32;100.15;;;41.63;;
79759;SDS011;70512;42.122;24.732;2024-03-02T01:36:00;108.15;;;41.10;;
79759;SDS011;70512;42.122;24.732;2024-03-02T01:38:28;94.70;;;41.45;;
79759;SDS011;70512;42.122;24.732;2024-03-02T01:40:55;109.03;;;41.37;;
79759;SDS011;70512;42.122;24.732;2024-03-02T01:43:24;121.07;;;45.15;;
79759;SDS011;70512;42.122;24.732;2024-03-02T01:45:52;118.50;;;44.88;;
79759;SDS011;70512;42.122;24.732;2024-03-02T01:48:19;119.80;;;46.58;;
79759;SDS011;70512;42.122;24.732;2024-03-02T01:50:47;115.42;;;44.25;;
79759;SDS011;70512;42.122;24.732;2024-03-02T01:53:15;114.75;;;43.63;;
79759;SDS011;70512;42.122;24.732;2024-03-02T01:55:42;126.05;;;46.45;;
79759;SDS011;70512;42.122;24.732;2024-03-02T01:58:10;111.30;;;41.73;;
79759;SDS011;70512;42.122;24.732;2024-03-02T02:00:38;118.25;;;45.33;;
79759;SDS011;70512;42.122;24.732;2024-03-02T02:03:06;115.35;;;44.85;;
79759;SDS011;70512;42.122;24.732;2024-03-02T02:05:34;130.70;;;46.37;;
79759;SDS011;70512;42.122;24.732;2024-03-02T02:08:02;121.55;;;45.30;;
79759;SDS011;70512;42.122;24.732;2024-03-02T02:10:29;117.93;;;42.20;;
79759;SDS011;70512;42.122;24.732;2024-03-02T02:12:57;103.27;;;42.35;;
79759;SDS011;70512;42.122;24.732;2024-03-02T02:15:28;98.60;;;41.10;;
79759;SDS011;70512;42.122;24.732;2024-03-02T02:17:56;96.00;;;41.33;;
79759;SDS011;70512;42.122;24.732;2024-03-02T02:20:25;92.02;;;39.18;;
79759;SDS011;70512;42.122;24.732;2024-03-02T02:23:01;78.57;;;37.90;;
79759;SDS011;70512;42.122;24.732;2024-03-02T02:25:38;83.25;;;37.35;;
79759;SDS011;70512;42.122;24.732;2024-03-02T02:28:06;84.05;;;34.65;;
79759;SDS011;70512;42.122;24.732;2024-03-02T02:30:34;79.22;;;34.58;;
79759;SDS011;70512;42.122;24.732;2024-03-02T02:33:02;76.97;;;34.75;;
79759;SDS011;70512;42.122;24.732;2024-03-02T02:35:29;78.22;;;35.85;;
79759;SDS011;70512;42.122;24.732;2024-03-02T02:37:57;81.55;;;35.78;;
79759;SDS011;70512;42.122;24.732;2024-03-02T02:40:25;72.67;;;34.80;;
79759;SDS011;70512;42.122;24.732;2024-03-02T02:42:55;74.97;;;36.35;;
79759;SDS011;70512;42.122;24.732;2024-03-02T02:45:24;81.32;;;33.67;;
79759;SDS011;70512;42.122;24.732;2024-03-02T02:47:52;75.57;;;34.48;;
79759;SDS011;70512;42.122;24.732;2024-03-02T02:50:20;79.05;;;35.03;;
79759;SDS011;70512;42.122;24.732;2024-03-02T02:52:48;68.97;;;34.83;;
79759;SDS011;70512;42.122;24.732;2024-03-02T02:55:16;71.72;;;34.65;;
79759;SDS011;70512;42.122;24.732;2024-03-02T02:57:44;78.85;;;33.98;;
79759;SDS011;70512;42.122;24.732;2024-03-02T03:00:13;83.75;;;36.33;;
79759;SDS011;70512;42.122;24.732;2024-03-02T03:02:43;79.30;;;35.13;;
79759;SDS011;70512;42.122;24.732;2024-03-02T03:05:13;79.12;;;36.30;;
79759;SDS011;70512;42.122;24.732;2024-03-02T03:07:41;86.37;;;37.88;;
79759;SDS011;70512;42.122;24.732;2024-03-02T03:10:11;81.85;;;36.33;;
79759;SDS011;70512;42.122;24.732;2024-03-02T03:12:39;82.85;;;36.20;;
79759;SDS011;70512;42.122;24.732;2024-03-02T03:15:08;84.13;;;35.75;;
79759;SDS011;70512;42.122;24.732;2024-03-02T03:17:37;88.60;;;37.30;;
79759;SDS011;70512;42.122;24.732;2024-03-02T03:20:05;89.80;;;36.75;;
79759;SDS011;70512;42.122;24.732;2024-03-02T03:22:35;83.33;;;36.05;;
79759;SDS011;70512;42.122;24.732;2024-03-02T03:25:03;94.50;;;37.05;;
79759;SDS011;70512;42.122;24.732;2024-03-02T03:27:32;72.15;;;34.10;;
79759;SDS011;70512;42.122;24.732;2024-03-02T03:30:00;72.45;;;33.73;;
79759;SDS011;70512;42.122;24.732;2024-03-02T03:32:28;68.47;;;33.75;;
79759;SDS011;70512;42.122;24.732;2024-03-02T03:34:56;71.47;;;32.50;;
79759;SDS011;70512;42.122;24.732;2024-03-02T03:37:24;80.15;;;34.13;;
79759;SDS011;70512;42.122;24.732;2024-03-02T03:39:53;76.37;;;34.78;;
79759;SDS011;70512;42.122;24.732;2024-03-02T03:42:21;71.50;;;35.68;;
79759;SDS011;70512;42.122;24.732;2024-03-02T03:44:48;71.25;;;33.55;;
79759;SDS011;70512;42.122;24.732;2024-03-02T03:47:16;74.90;;;33.35;;
79759;SDS011;70512;42.122;24.732;2024-03-02T03:49:44;77.65;;;35.63;;
79759;SDS011;70512;42.122;24.732;2024-03-02T03:52:11;74.30;;;34.35;;
79759;SDS011;70512;42.122;24.732;2024-03-02T03:54:39;80.80;;;36.70;;
79759;SDS011;70512;42.122;24.732;2024-03-02T03:57:08;76.92;;;35.75;;
79759;SDS011;70512;42.122;24.732;2024-03-02T03:59:36;83.00;;;35.28;;
79759;SDS011;70512;42.122;24.732;2024-03-02T04:02:04;86.28;;;36.35;;
79759;SDS011;70512;42.122;24.732;2024-03-02T04:04:31;81.82;;;38.55;;
79759;SDS011;70512;42.122;24.732;2024-03-02T04:06:59;74.07;;;36.45;;
79759;SDS011;70512;42.122;24.732;2024-03-02T04:09:27;100.92;;;39.83;;
79759;SDS011;70512;42.122;24.732;2024-03-02T04:11:55;91.12;;;36.60;;
79759;SDS011;70512;42.122;24.732;2024-03-02T04:14:22;86.67;;;35.50;;
79759;SDS011;70512;42.122;24.732;2024-03-02T04:16:50;92.15;;;37.93;;
79759;SDS011;70512;42.122;24.732;2024-03-02T04:19:18;91.12;;;37.40;;
79759;SDS011;70512;42.122;24.732;2024-03-02T04:21:46;92.45;;;38.35;;
79759;SDS011;70512;42.122;24.732;2024-03-02T04:24:13;82.67;;;37.63;;
79759;SDS011;70512;42.122;24.732;2024-03-02T04:26:41;84.20;;;36.75;;
79759;SDS011;70512;42.122;24.732;2024-03-02T04:29:08;88.85;;;36.48;;
79759;SDS011;70512;42.122;24.732;2024-03-02T04:31:36;89.00;;;37.28;;
79759;SDS011;70512;42.122;24.732;2024-03-02T04:34:04;93.07;;;37.50;;
79759;SDS011;70512;42.122;24.732;2024-03-02T04:36:32;91.30;;;37.98;;
79759;SDS011;70512;42.122;24.732;2024-03-02T04:39:01;83.50;;;37.40;;
79759;SDS011;70512;42.122;24.732;2024-03-02T04:41:28;92.37;;;38.55;;
79759;SDS011;70512;42.122;24.732;2024-03-02T04:43:56;86.10;;;35.95;;
79759;SDS011;70512;42.122;24.732;2024-03-02T04:46:25;86.55;;;37.35;;
79759;SDS011;70512;42.122;24.732;2024-03-02T04:48:55;94.87;;;38.42;;
79759;SDS011;70512;42.122;24.732;2024-03-02T04:51:23;90.90;;;37.88;;
79759;SDS011;70512;42.122;24.732;2024-03-02T04:53:50;91.95;;;38.35;;
79759;SDS011;70512;42.122;24.732;2024-03-02T04:56:18;98.85;;;39.15;;
79759;SDS011;70512;42.122;24.732;2024-03-02T04:58:50;96.57;;;36.98;;
79759;SDS011;70512;42.122;24.732;2024-03-02T05:01:18;94.13;;;36.28;;
79759;SDS011;70512;42.122;24.732;2024-03-02T05:03:46;100.53;;;39.30;;
79759;SDS011;70512;42.122;24.732;2024-03-02T05:06:13;86.57;;;35.65;;
79759;SDS011;70512;42.122;24.732;2024-03-02T05:08:41;98.82;;;36.98;;
79759;SDS011;70512;42.122;24.732;2024-03-02T05:11:10;85.87;;;34.83;;
79759;SDS011;70512;42.122;24.732;2024-03-02T05:13:58;99.67;;;36.70;;
79759;SDS011;70512;42.122;24.732;2024-03-02T05:16:25;100.40;;;34.70;;
79759;SDS011;70512;42.122;24.732;2024-03-02T05:18:53;96.15;;;35.05;;
79759;SDS011;70512;42.122;24.732;2024-03-02T05:21:21;97.78;;;35.40;;
79759;SDS011;70512;42.122;24.732;2024-03-02T05:23:48;90.12;;;35.73;;
79759;SDS011;70512;42.122;24.732;2024-03-02T05:26:16;84.20;;;34.80;;
79759;SDS011;70512;42.122;24.732;2024-03-02T05:28:44;100.62;;;35.17;;
79759;SDS011;70512;42.122;24.732;2024-03-02T05:31:12;95.22;;;36.85;;
79759;SDS011;70512;42.122;24.732;2024-03-02T05:33:45;92.40;;;33.70;;
79759;SDS011;70512;42.122;24.732;2024-03-02T05:36:13;82.57;;;33.78;;
79759;SDS011;70512;42.122;24.732;2024-03-02T05:38:40;78.45;;;33.10;;
79759;SDS011;70512;42.122;24.732;2024-03-02T05:41:08;76.15;;;31.75;;
79759;SDS011;70512;42.122;24.732;2024-03-02T05:43:37;82.47;;;34.65;;
79759;SDS011;70512;42.122;24.732;2024-03-02T05:46:05;72.22;;;32.20;;
79759;SDS011;70512;42.122;24.732;2024-03-02T05:48:33;83.62;;;33.70;;
79759;SDS011;70512;42.122;24.732;2024-03-02T05:51:00;80.03;;;32.98;;
79759;SDS011;70512;42.122;24.732;2024-03-02T05:53:28;86.75;;;34.70;;
79759;SDS011;70512;42.122;24.732;2024-03-02T05:55:56;84.60;;;33.42;;
79759;SDS011;70512;42.122;24.732;2024-03-02T05:58:23;75.42;;;32.42;;
79759;SDS011;70512;42.122;24.732;2024-03-02T06:00:59;76.42;;;33.20;;
79759;SDS011;70512;42.122;24.732;2024-03-02T06:03:27;72.92;;;30.70;;
79759;SDS011;70512;42.122;24.732;2024-03-02T06:05:55;68.65;;;32.60;;
79759;SDS011;70512;42.122;24.732;2024-03-02T06:08:22;70.52;;;30.23;;
79759;SDS011;70512;42.122;24.732;2024-03-02T06:10:50;65.25;;;30.45;;
79759;SDS011;70512;42.122;24.732;2024-03-02T06:13:18;68.97;;;29.90;;
79759;SDS011;70512;42.122;24.732;2024-03-02T06:15:47;53.20;;;26.15;;
79759;SDS011;70512;42.122;24.732;2024-03-02T06:18:15;69.00;;;28.98;;
79759;SDS011;70512;42.122;24.732;2024-03-02T06:20:42;70.97;;;28.65;;
79759;SDS011;70512;42.122;24.732;2024-03-02T06:23:10;61.02;;;27.05;;
79759;SDS011;70512;42.122;24.732;2024-03-02T06:25:38;63.40;;;27.37;;
79759;SDS011;70512;42.122;24.732;2024-03-02T06:28:05;68.15;;;29.75;;
79759;SDS011;70512;42.122;24.732;2024-03-02T06:30:33;66.05;;;27.48;;
79759;SDS011;70512;42.122;24.732;2024-03-02T06:33:01;63.87;;;28.35;;
79759;SDS011;70512;42.122;24.732;2024-03-02T06:35:29;61.15;;;27.07;;
79759;SDS011;70512;42.122;24.732;2024-03-02T06:37:57;51.65;;;24.50;;
79759;SDS011;70512;42.122;24.732;2024-03-02T06:40:24;50.58;;;24.00;;
79759;SDS011;70512;42.122;24.732;2024-03-02T06:42:52;45.95;;;24.65;;
79759;SDS011;70512;42.122;24.732;2024-03-02T06:45:20;49.03;;;24.90;;
79759;SDS011;70512;42.122;24.732;2024-03-02T06:47:47;44.40;;;21.90;;
79759;SDS011;70512;42.122;24.732;2024-03-02T06:50:15;54.27;;;26.05;;
79759;SDS011;70512;42.122;24.732;2024-03-02T06:52:43;47.23;;;22.32;;
79759;SDS011;70512;42.122;24.732;2024-03-02T06:55:11;46.68;;;23.05;;
79759;SDS011;70512;42.122;24.732;2024-03-02T06:57:38;42.95;;;22.13;;
79759;SDS011;70512;42.122;24.732;2024-03-02T07:00:06;41.92;;;22.70;;
79759;SDS011;70512;42.122;24.732;2024-03-02T07:02:35;51.25;;;22.50;;
79759;SDS011;70512;42.122;24.732;2024-03-02T07:05:02;49.73;;;24.02;;
79759;SDS011;70512;42.122;24.732;2024-03-02T07:07:32;58.63;;;28.90;;
79759;SDS011;70512;42.122;24.732;2024-03-02T07:10:01;56.50;;;25.80;;
79759;SDS011;70512;42.122;24.732;2024-03-02T07:12:28;52.33;;;23.30;;
79759;SDS011;70512;42.122;24.732;2024-03-02T07:14:57;51.53;;;24.32;;
79759;SDS011;70512;42.122;24.732;2024-03-02T07:17:32;56.02;;;27.27;;
79759;SDS011;70512;42.122;24.732;2024-03-02T07:20:01;46.48;;;24.50;;
79759;SDS011;70512;42.122;24.732;2024-03-02T07:22:29;42.65;;;22.20;;
79759;SDS011;70512;42.122;24.732;2024-03-02T07:24:57;41.88;;;23.77;;
79759;SDS011;70512;42.122;24.732;2024-03-02T07:27:25;39.67;;;23.05;;
79759;SDS011;70512;42.122;24.732;2024-03-02T07:29:52;47.33;;;23.92;;
79759;SDS011;70512;42.122;24.732;2024-03-02T07:32:20;41.73;;;21.87;;
79759;SDS011;70512;42.122;24.732;2024-03-02T07:34:48;40.75;;;22.32;;
79759;SDS011;70512;42.122;24.732;2024-03-02T07:37:17;46.53;;;23.57;;
79759;SDS011;70512;42.122;24.732;2024-03-02T07:39:44;46.37;;;23.85;;
79759;SDS011;70512;42.122;24.732;2024-03-02T07:42:12;47.13;;;25.25;;
79759;SDS011;70512;42.122;24.732;2024-03-02T07:44:40;46.42;;;23.75;;
79759;SDS011;70512;42.122;24.732;2024-03-02T07:47:08;43.68;;;24.27;;
79759;SDS011;70512;42.122;24.732;2024-03-02T07:49:35;42.35;;;23.60;;
79759;SDS011;70512;42.122;24.732;2024-03-02T07:52:03;42.25;;;22.58;;
79759;SDS011;70512;42.122;24.732;2024-03-02T07:54:31;43.15;;;23.18;;
79759;SDS011;70512;42.122;24.732;2024-03-02T07:56:59;44.08;;;23.85;;
79759;SDS011;70512;42.122;24.732;2024-03-02T07:59:27;47.03;;;24.75;;
79759;SDS011;70512;42.122;24.732;2024-03-02T08:01:55;40.85;;;23.25;;
79759;SDS011;70512;42.122;24.732;2024-03-02T08:04:22;40.90;;;23.15;;
79759;SDS011;70512;42.122;24.732;2024-03-02T08:06:50;38.95;;;22.35;;
79759;SDS011;70512;42.122;24.732;2024-03-02T08:09:18;47.50;;;24.07;;
79759;SDS011;70512;42.122;24.732;2024-03-02T08:11:45;41.15;;;22.52;;
79759;SDS011;70512;42.122;24.732;2024-03-02T08:14:13;47.60;;;23.00;;
79759;SDS011;70512;42.122;24.732;2024-03-02T08:16:41;42.03;;;22.98;;
79759;SDS011;70512;42.122;24.732;2024-03-02T08:19:08;45.15;;;22.82;;
79759;SDS011;70512;42.122;24.732;2024-03-02T08:21:37;44.15;;;21.73;;
79759;SDS011;70512;42.122;24.732;2024-03-02T08:24:04;33.42;;;18.75;;
79759;SDS011;70512;42.122;24.732;2024-03-02T08:26:32;36.08;;;21.42;;
79759;SDS011;70512;42.122;24.732;2024-03-02T08:29:01;47.95;;;23.85;;
79759;SDS011;70512;42.122;24.732;2024-03-02T08:31:29;41.18;;;21.37;;
79759;SDS011;70512;42.122;24.732;2024-03-02T08:33:57;51.08;;;24.00;;
79759;SDS011;70512;42.122;24.732;2024-03-02T08:36:25;38.45;;;20.32;;
79759;SDS011;70512;42.122;24.732;2024-03-02T08:38:53;39.10;;;21.30;;
79759;SDS011;70512;42.122;24.732;2024-03-02T08:41:20;36.83;;;21.17;;
79759;SDS011;70512;42.122;24.732;2024-03-02T08:43:49;41.77;;;22.42;;
79759;SDS011;70512;42.122;24.732;2024-03-02T08:46:16;47.70;;;23.12;;
79759;SDS011;70512;42.122;24.732;2024-03-02T08:48:44;36.55;;;22.30;;
79759;SDS011;70512;42.122;24.732;2024-03-02T08:51:12;40.43;;;21.33;;
79759;SDS011;70512;42.122;24.732;2024-03-02T08:53:39;37.95;;;22.48;;
79759;SDS011;70512;42.122;24.732;2024-03-02T08:56:08;52.95;;;23.40;;
79759;SDS011;70512;42.122;24.732;2024-03-02T08:58:36;47.03;;;22.62;;
79759;SDS011;70512;42.122;24.732;2024-03-02T09:01:03;49.35;;;23.62;;
79759;SDS011;70512;42.122;24.732;2024-03-02T09:03:33;58.80;;;24.77;;
79759;SDS011;70512;42.122;24.732;2024-03-02T09:06:01;47.15;;;24.70;;
79759;SDS011;70512;42.122;24.732;2024-03-02T09:08:29;50.78;;;23.45;;
79759;SDS011;70512;42.122;24.732;2024-03-02T09:10:56;53.63;;;26.73;;
79759;SDS011;70512;42.122;24.732;2024-03-02T09:13:24;47.17;;;23.98;;
79759;SDS011;70512;42.122;24.732;2024-03-02T09:15:52;52.75;;;23.77;;
79759;SDS011;70512;42.122;24.732;2024-03-02T09:18:20;39.18;;;22.42;;
79759;SDS011;70512;42.122;24.732;2024-03-02T09:20:48;50.98;;;23.02;;
79759;SDS011;70512;42.122;24.732;2024-03-02T09:23:15;46.30;;;22.35;;
79759;SDS011;70512;42.122;24.732;2024-03-02T09:25:43;45.55;;;23.57;;
79759;SDS011;70512;42.122;24.732;2024-03-02T09:28:11;41.68;;;22.87;;
79759;SDS011;70512;42.122;24.732;2024-03-02T09:30:38;50.95;;;26.68;;
79759;SDS011;70512;42.122;24.732;2024-03-02T09:33:06;51.63;;;25.12;;
79759;SDS011;70512;42.122;24.732;2024-03-02T09:35:34;48.63;;;25.70;;
79759;SDS011;70512;42.122;24.732;2024-03-02T09:38:02;52.53;;;25.82;;
79759;SDS011;70512;42.122;24.732;2024-03-02T09:40:32;56.92;;;27.30;;
79759;SDS011;70512;42.122;24.732;2024-03-02T09:42:59;56.25;;;26.42;;
79759;SDS011;70512;42.122;24.732;2024-03-02T09:45:27;57.27;;;28.17;;
79759;SDS011;70512;42.122;24.732;2024-03-02T09:47:56;48.80;;;25.15;;
79759;SDS011;70512;42.122;24.732;2024-03-02T09:50:23;45.95;;;25.43;;
79759;SDS011;70512;42.122;24.732;2024-03-02T09:52:51;49.93;;;24.87;;
79759;SDS011;70512;42.122;24.732;2024-03-02T09:55:20;58.38;;;27.95;;
79759;SDS011;70512;42.122;24.732;2024-03-02T09:57:48;50.00;;;27.07;;
79759;SDS011;70512;42.122;24.732;2024-03-02T10:00:16;52.95;;;26.87;;
79759;SDS011;70512;42.122;24.732;2024-03-02T10:02:44;54.38;;;26.23;;
79759;SDS011;70512;42.122;24.732;2024-03-02T10:05:22;44.53;;;23.47;;
79759;SDS011;70512;42.122;24.732;2024-03-02T10:08:00;50.80;;;25.90;;
79759;SDS011;70512;42.122;24.732;2024-03-02T10:10:38;48.83;;;26.93;;
79759;SDS011;70512;42.122;24.732;2024-03-02T10:13:07;38.38;;;22.98;;
79759;SDS011;70512;42.122;24.732;2024-03-02T10:15:37;44.45;;;25.12;;
79759;SDS011;70512;42.122;24.732;2024-03-02T10:18:12;50.55;;;24.77;;
79759;SDS011;70512;42.122;24.732;2024-03-02T10:20:39;51.23;;;25.77;;
79759;SDS011;70512;42.122;24.732;2024-03-02T10:23:14;46.10;;;26.25;;
79759;SDS011;70512;42.122;24.732;2024-03-02T10:25:41;48.50;;;24.98;;
79759;SDS011;70512;42.122;24.732;2024-03-02T10:28:09;46.88;;;23.67;;
79759;SDS011;70512;42.122;24.732;2024-03-02T10:30:37;40.60;;;25.35;;
79759;SDS011;70512;42.122;24.732;2024-03-02T10:33:06;51.65;;;24.65;;
79759;SDS011;70512;42.122;24.732;2024-03-02T10:35:33;46.02;;;25.52;;
79759;SDS011;70512;42.122;24.732;2024-03-02T10:38:08;47.20;;;25.08;;
79759;SDS011;70512;42.122;24.732;2024-03-02T10:40:32;43.92;;;25.62;;
79759;SDS011;70512;42.122;24.732;2024-03-02T10:43:01;43.38;;;24.18;;
79759;SDS011;70512;42.122;24.732;2024-03-02T10:45:31;44.55;;;26.55;;
79759;SDS011;70512;42.122;24.732;2024-03-02T10:47:59;45.10;;;24.47;;
79759;SDS011;70512;42.122;24.732;2024-03-02T10:50:28;47.67;;;24.82;;
79759;SDS011;70512;42.122;24.732;2024-03-02T10:52:57;47.20;;;26.65;;
79759;SDS011;70512;42.122;24.732;2024-03-02T10:55:24;46.10;;;27.07;;
79759;SDS011;70512;42.122;24.732;2024-03-02T10:57:52;46.40;;;28.55;;
79759;SDS011;70512;42.122;24.732;2024-03-02T11:00:24;52.95;;;27.70;;
79759;SDS011;70512;42.122;24.732;2024-03-02T11:02:58;47.35;;;25.92;;
79759;SDS011;70512;42.122;24.732;2024-03-02T11:05:31;54.13;;;29.35;;
79759;SDS011;70512;42.122;24.732;2024-03-02T11:08:04;51.30;;;26.42;;
79759;SDS011;70512;42.122;24.732;2024-03-02T11:10:41;46.77;;;27.95;;
79759;SDS011;70512;42.122;24.732;2024-03-02T11:13:05;51.23;;;30.93;;
79759;SDS011;70512;42.122;24.732;2024-03-02T11:15:39;57.30;;;30.75;;
79759;SDS011;70512;42.122;24.732;2024-03-02T11:18:09;57.85;;;30.43;;
79759;SDS011;70512;42.122;24.732;2024-03-02T11:20:38;64.20;;;31.85;;
79759;SDS011;70512;42.122;24.732;2024-03-02T11:23:08;54.13;;;29.77;;
79759;SDS011;70512;42.122;24.732;2024-03-02T11:25:36;59.58;;;33.13;;
79759;SDS011;70512;42.122;24.732;2024-03-02T11:28:06;50.83;;;30.30;;
79759;SDS011;70512;42.122;24.732;2024-03-02T11:33:11;54.85;;;31.10;;
79759;SDS011;70512;42.122;24.732;2024-03-02T11:35:42;55.88;;;33.35;;
79759;SDS011;70512;42.122;24.732;2024-03-02T11:38:14;61.18;;;32.33;;
79759;SDS011;70512;42.122;24.732;2024-03-02T11:40:42;56.05;;;32.98;;
79759;SDS011;70512;42.122;24.732;2024-03-02T11:43:10;53.08;;;31.27;;
79759;SDS011;70512;42.122;24.732;2024-03-02T11:45:38;47.13;;;30.00;;
79759;SDS011;70512;42.122;24.732;2024-03-02T11:48:10;40.52;;;25.45;;
79759;SDS011;70512;42.122;24.732;2024-03-02T11:50:41;38.98;;;26.30;;
79759;SDS011;70512;42.122;24.732;2024-03-02T11:53:10;39.25;;;27.02;;
79759;SDS011;70512;42.122;24.732;2024-03-02T11:55:39;39.67;;;24.20;;
79759;SDS011;70512;42.122;24.732;2024-03-02T11:58:09;35.52;;;25.23;;
79759;SDS011;70512;42.122;24.732;2024-03-02T12:00:38;41.45;;;26.82;;
79759;SDS011;70512;42.122;24.732;2024-03-02T12:03:06;43.23;;;27.27;;
79759;SDS011;70512;42.122;24.732;2024-03-02T12:05:35;42.25;;;29.42;;
79759;SDS011;70512;42.122;24.732;2024-03-02T12:08:03;38.50;;;26.15;;
79759;SDS011;70512;42.122;24.732;2024-03-02T12:10:33;43.20;;;30.48;;
79759;SDS011;70512;42.122;24.732;2024-03-02T12:13:05;28.98;;;21.87;;
79759;SDS011;70512;42.122;24.732;2024-03-02T12:15:35;29.27;;;22.32;;
79759;SDS011;70512;42.122;24.732;2024-03-02T12:18:06;28.00;;;21.00;;
79759;SDS011;70512;42.122;24.732;2024-03-02T12:20:33;31.90;;;22.62;;
79759;SDS011;70512;42.122;24.732;2024-03-02T12:23:02;31.65;;;23.40;;
79759;SDS011;70512;42.122;24.732;2024-03-02T12:25:32;34.98;;;24.43;;
79759;SDS011;70512;42.122;24.732;2024-03-02T12:28:00;33.45;;;24.25;;
79759;SDS011;70512;42.122;24.732;2024-03-02T12:30:32;35.28;;;24.27;;
79759;SDS011;70512;42.122;24.732;2024-03-02T12:33:02;33.42;;;24.20;;
79759;SDS011;70512;42.122;24.732;2024-03-02T12:35:30;34.78;;;24.77;;
79759;SDS011;70512;42.122;24.732;2024-03-02T12:37:58;35.40;;;24.92;;
79759;SDS011;70512;42.122;24.732;2024-03-02T12:40:25;34.75;;;25.00;;
79759;SDS011;70512;42.122;24.732;2024-03-02T12:42:53;32.63;;;23.62;;
79759;SDS011;70512;42.122;24.732;2024-03-02T12:45:21;34.18;;;23.85;;
79759;SDS011;70512;42.122;24.732;2024-03-02T12:47:51;33.05;;;24.85;;
79759;SDS011;70512;42.122;24.732;2024-03-02T12:50:22;36.48;;;23.77;;
79759;SDS011;70512;42.122;24.732;2024-03-02T12:52:53;31.68;;;23.75;;
79759;SDS011;70512;42.122;24.732;2024-03-02T12:55:22;32.63;;;23.70;;
79759;SDS011;70512;42.122;24.732;2024-03-02T12:57:50;38.40;;;26.77;;
79759;SDS011;70512;42.122;24.732;2024-03-02T13:00:19;38.15;;;26.50;;
79759;SDS011;70512;42.122;24.732;2024-03-02T13:02:47;38.48;;;25.88;;
79759;SDS011;70512;42.122;24.732;2024-03-02T13:05:16;43.98;;;31.10;;
79759;SDS011;70512;42.122;24.732;2024-03-02T13:07:46;40.65;;;27.58;;
79759;SDS011;70512;42.122;24.732;2024-03-02T13:10:17;34.15;;;26.73;;
79759;SDS011;70512;42.122;24.732;2024-03-02T13:12:44;39.15;;;27.58;;
79759;SDS011;70512;42.122;24.732;2024-03-02T13:15:12;35.28;;;24.87;;
79759;SDS011;70512;42.122;24.732;2024-03-02T13:17:41;34.50;;;25.00;;
79759;SDS011;70512;42.122;24.732;2024-03-02T13:20:11;38.25;;;27.95;;
79759;SDS011;70512;42.122;24.732;2024-03-02T13:22:40;50.45;;;30.48;;
79759;SDS011;70512;42.122;24.732;2024-03-02T13:25:07;49.85;;;32.67;;
79759;SDS011;70512;42.122;24.732;2024-03-02T13:27:36;46.08;;;32.55;;
79759;SDS011;70512;42.122;24.732;2024-03-02T13:30:04;45.98;;;33.63;;
79759;SDS011;70512;42.122;24.732;2024-03-02T13:32:34;43.92;;;31.07;;
79759;SDS011;70512;42.122;24.732;2024-03-02T13:35:02;44.00;;;28.98;;
79759;SDS011;70512;42.122;24.732;2024-03-02T13:37:29;40.70;;;29.77;;
79759;SDS011;70512;42.122;24.732;2024-03-02T13:39:57;40.52;;;29.72;;
79759;SDS011;70512;42.122;24.732;2024-03-02T13:42:25;44.70;;;30.62;;
79759;SDS011;70512;42.122;24.732;2024-03-02T13:44:53;38.83;;;27.45;;
79759;SDS011;70512;42.122;24.732;2024-03-02T13:47:21;40.15;;;27.50;;
79759;SDS011;70512;42.122;24.732;2024-03-02T13:49:48;42.88;;;29.20;;
79759;SDS011;70512;42.122;24.732;2024-03-02T13:52:16;41.48;;;28.38;;
79759;SDS011;70512;42.122;24.732;2024-03-02T13:54:45;34.63;;;26.77;;
79759;SDS011;70512;42.122;24.732;2024-03-02T13:57:13;35.30;;;24.10;;
79759;SDS011;70512;42.122;24.732;2024-03-02T13:59:42;38.35;;;26.85;;
79759;SDS011;70512;42.122;24.732;2024-03-02T14:02:11;34.33;;;24.30;;
79759;SDS011;70512;42.122;24.732;2024-03-02T14:04:39;31.82;;;22.80;;
79759;SDS011;70512;42.122;24.732;2024-03-02T14:07:07;32.75;;;20.95;;
79759;SDS011;70512;42.122;24.732;2024-03-02T14:09:36;28.60;;;20.37;;
79759;SDS011;70512;42.122;24.732;2024-03-02T14:12:05;27.48;;;21.00;;
79759;SDS011;70512;42.122;24.732;2024-03-02T14:14:33;23.87;;;19.17;;
79759;SDS011;70512;42.122;24.732;2024-03-02T14:17:00;27.85;;;20.05;;
79759;SDS011;70512;42.122;24.732;2024-03-02T14:19:32;30.80;;;21.55;;
79759;SDS011;70512;42.122;24.732;2024-03-02T14:21:59;32.13;;;21.90;;
79759;SDS011;70512;42.122;24.732;2024-03-02T14:24:27;29.27;;;22.02;;
79759;SDS011;70512;42.122;24.732;2024-03-02T14:26:55;34.60;;;24.27;;